sensor_id;sensor_type;location;lat;lon;timestamp;P1;durP1;ratioP1;P2;durP2;ratioP2
44512;SDS011;30219;50.588;9.504;2022-10-29T00:00:23;22.85;;;5.72;;
44512;SDS011;30219;50.588;9.504;2022-10-29T00:02:48;22.33;;;5.45;;
44512;SDS011;30219;50.588;9.504;2022-10-29T00:05:14;13.85;;;4.57;;
44512;SDS011;30219;50.588;9.504;2022-10-29T00:07:39;16.23;;;5.00;;
44512;SDS011;30219;50.588;9.504;2022-10-29T00:10:05;19.73;;;4.82;;
44512;SDS011;30219;50.588;9.504;2022-10-29T00:12:31;29.00;;;5.18;;
44512;SDS011;30219;50.588;9.504;2022-10-29T00:14:57;20.38;;;5.43;;
44512;SDS011;30219;50.588;9.504;2022-10-29T00:17:22;18.73;;;4.47;;
44512;SDS011;30219;50.588;9.504;2022-10-29T00:19:48;15.40;;;4.30;;
44512;SDS011;30219;50.588;9.504;2022-10-29T00:22:14;14.30;;;4.15;;
44512;SDS011;30219;50.588;9.504;2022-10-29T00:24:39;18.48;;;5.22;;
44512;SDS011;30219;50.588;9.504;2022-10-29T00:27:05;18.40;;;5.07;;
44512;SDS011;30219;50.588;9.504;2022-10-29T00:29:30;23.02;;;5.20;;
44512;SDS011;30219;50.588;9.504;2022-10-29T00:31:56;18.45;;;4.60;;
44512;SDS011;30219;50.588;9.504;2022-10-29T00:34:21;25.65;;;5.43;;
44512;SDS011;30219;50.588;9.504;2022-10-29T00:36:47;17.20;;;4.68;;
44512;SDS011;30219;50.588;9.504;2022-10-29T00:39:16;17.70;;;4.80;;
44512;SDS011;30219;50.588;9.504;2022-10-29T00:41:42;23.55;;;5.05;;
44512;SDS011;30219;50.588;9.504;2022-10-29T00:46:43;20.77;;;4.25;;
44512;SDS011;30219;50.588;9.504;2022-10-29T00:49:15;15.10;;;4.55;;
44512;SDS011;30219;50.588;9.504;2022-10-29T00:51:41;21.98;;;5.30;;
44512;SDS011;30219;50.588;9.504;2022-10-29T00:54:08;17.52;;;4.10;;
44512;SDS011;30219;50.588;9.504;2022-10-29T00:56:42;13.02;;;5.38;;
44512;SDS011;30219;50.588;9.504;2022-10-29T00:59:15;19.63;;;5.50;;
44512;SDS011;30219;50.588;9.504;2022-10-29T01:01:42;25.02;;;5.00;;
44512;SDS011;30219;50.588;9.504;2022-10-29T01:04:09;23.55;;;5.53;;
44512;SDS011;30219;50.588;9.504;2022-10-29T01:06:35;20.48;;;4.90;;
44512;SDS011;30219;50.588;9.504;2022-10-29T01:09:02;24.60;;;5.20;;
44512;SDS011;30219;50.588;9.504;2022-10-29T01:17:00;17.45;;;5.10;;
44512;SDS011;30219;50.588;9.504;2022-10-29T01:23:09;27.55;;;5.30;;
44512;SDS011;30219;50.588;9.504;2022-10-29T01:26:06;16.02;;;5.07;;
44512;SDS011;30219;50.588;9.504;2022-10-29T01:28:58;24.25;;;4.97;;
44512;SDS011;30219;50.588;9.504;2022-10-29T01:31:38;20.83;;;4.55;;
44512;SDS011;30219;50.588;9.504;2022-10-29T01:37:10;19.08;;;4.70;;
44512;SDS011;30219;50.588;9.504;2022-10-29T01:39:43;20.38;;;4.97;;
44512;SDS011;30219;50.588;9.504;2022-10-29T01:47:46;14.68;;;5.00;;
44512;SDS011;30219;50.588;9.504;2022-10-29T01:50:18;14.93;;;5.35;;
44512;SDS011;30219;50.588;9.504;2022-10-29T01:52:47;24.48;;;5.03;;
44512;SDS011;30219;50.588;9.504;2022-10-29T01:55:15;19.65;;;5.55;;
44512;SDS011;30219;50.588;9.504;2022-10-29T01:57:45;26.98;;;5.68;;
44512;SDS011;30219;50.588;9.504;2022-10-29T02:00:15;18.38;;;4.85;;
44512;SDS011;30219;50.588;9.504;2022-10-29T02:05:43;18.58;;;5.13;;
44512;SDS011;30219;50.588;9.504;2022-10-29T02:08:48;20.77;;;5.80;;
44512;SDS011;30219;50.588;9.504;2022-10-29T02:11:47;27.50;;;5.32;;
44512;SDS011;30219;50.588;9.504;2022-10-29T02:15:20;16.48;;;5.32;;
44512;SDS011;30219;50.588;9.504;2022-10-29T02:17:59;24.20;;;5.03;;
44512;SDS011;30219;50.588;9.504;2022-10-29T02:20:26;16.27;;;5.20;;
44512;SDS011;30219;50.588;9.504;2022-10-29T02:22:52;23.30;;;5.25;;
44512;SDS011;30219;50.588;9.504;2022-10-29T02:25:17;17.40;;;4.80;;
44512;SDS011;30219;50.588;9.504;2022-10-29T02:27:43;22.40;;;4.95;;
44512;SDS011;30219;50.588;9.504;2022-10-29T02:30:08;12.93;;;5.28;;
44512;SDS011;30219;50.588;9.504;2022-10-29T02:32:34;13.70;;;4.55;;
44512;SDS011;30219;50.588;9.504;2022-10-29T02:35:00;22.63;;;5.25;;
44512;SDS011;30219;50.588;9.504;2022-10-29T02:37:26;15.52;;;5.00;;
44512;SDS011;30219;50.588;9.504;2022-10-29T02:39:52;16.50;;;4.90;;
44512;SDS011;30219;50.588;9.504;2022-10-29T02:42:17;21.75;;;4.75;;
44512;SDS011;30219;50.588;9.504;2022-10-29T02:44:43;14.60;;;4.40;;
44512;SDS011;30219;50.588;9.504;2022-10-29T02:47:09;12.02;;;4.25;;
44512;SDS011;30219;50.588;9.504;2022-10-29T02:49:34;20.10;;;5.28;;
44512;SDS011;30219;50.588;9.504;2022-10-29T02:52:00;20.65;;;4.30;;
44512;SDS011;30219;50.588;9.504;2022-10-29T02:54:26;13.63;;;4.13;;
44512;SDS011;30219;50.588;9.504;2022-10-29T02:56:51;20.35;;;5.20;;
44512;SDS011;30219;50.588;9.504;2022-10-29T02:59:17;17.50;;;5.20;;
44512;SDS011;30219;50.588;9.504;2022-10-29T03:01:42;18.25;;;4.68;;
44512;SDS011;30219;50.588;9.504;2022-10-29T03:04:09;17.40;;;4.78;;
44512;SDS011;30219;50.588;9.504;2022-10-29T03:06:35;18.95;;;5.00;;
44512;SDS011;30219;50.588;9.504;2022-10-29T03:09:01;16.90;;;4.30;;
44512;SDS011;30219;50.588;9.504;2022-10-29T03:11:27;12.75;;;5.03;;
44512;SDS011;30219;50.588;9.504;2022-10-29T03:13:53;19.45;;;4.40;;
44512;SDS011;30219;50.588;9.504;2022-10-29T03:16:18;15.15;;;5.40;;
44512;SDS011;30219;50.588;9.504;2022-10-29T03:18:44;19.70;;;4.85;;
44512;SDS011;30219;50.588;9.504;2022-10-29T03:21:10;19.27;;;5.00;;
44512;SDS011;30219;50.588;9.504;2022-10-29T03:23:35;17.42;;;4.85;;
44512;SDS011;30219;50.588;9.504;2022-10-29T03:26:01;17.95;;;5.20;;
44512;SDS011;30219;50.588;9.504;2022-10-29T03:28:27;28.17;;;5.70;;
44512;SDS011;30219;50.588;9.504;2022-10-29T03:30:54;17.45;;;5.55;;
44512;SDS011;30219;50.588;9.504;2022-10-29T03:33:23;20.35;;;5.15;;
44512;SDS011;30219;50.588;9.504;2022-10-29T03:35:56;24.02;;;5.80;;
44512;SDS011;30219;50.588;9.504;2022-10-29T03:38:26;31.05;;;5.85;;
44512;SDS011;30219;50.588;9.504;2022-10-29T03:40:52;30.13;;;5.78;;
44512;SDS011;30219;50.588;9.504;2022-10-29T03:43:18;21.10;;;5.13;;
44512;SDS011;30219;50.588;9.504;2022-10-29T03:45:54;18.30;;;5.63;;
44512;SDS011;30219;50.588;9.504;2022-10-29T03:48:21;23.15;;;5.35;;
44512;SDS011;30219;50.588;9.504;2022-10-29T03:50:55;19.90;;;5.03;;
44512;SDS011;30219;50.588;9.504;2022-10-29T03:53:22;26.17;;;5.72;;
44512;SDS011;30219;50.588;9.504;2022-10-29T03:55:49;23.20;;;5.43;;
44512;SDS011;30219;50.588;9.504;2022-10-29T03:58:18;18.50;;;5.43;;
44512;SDS011;30219;50.588;9.504;2022-10-29T04:03:24;19.50;;;6.00;;
44512;SDS011;30219;50.588;9.504;2022-10-29T04:05:50;18.30;;;5.53;;
44512;SDS011;30219;50.588;9.504;2022-10-29T04:08:16;15.45;;;5.63;;
44512;SDS011;30219;50.588;9.504;2022-10-29T04:10:43;27.83;;;7.47;;
44512;SDS011;30219;50.588;9.504;2022-10-29T04:13:12;28.33;;;6.15;;
44512;SDS011;30219;50.588;9.504;2022-10-29T04:15:39;16.30;;;5.82;;
44512;SDS011;30219;50.588;9.504;2022-10-29T04:18:05;19.92;;;6.00;;
44512;SDS011;30219;50.588;9.504;2022-10-29T04:20:31;23.90;;;6.43;;
44512;SDS011;30219;50.588;9.504;2022-10-29T04:22:56;23.98;;;5.65;;
44512;SDS011;30219;50.588;9.504;2022-10-29T04:25:22;27.90;;;6.05;;
44512;SDS011;30219;50.588;9.504;2022-10-29T04:27:47;19.15;;;5.97;;
44512;SDS011;30219;50.588;9.504;2022-10-29T04:30:13;14.23;;;5.10;;
44512;SDS011;30219;50.588;9.504;2022-10-29T04:32:39;15.30;;;4.82;;
44512;SDS011;30219;50.588;9.504;2022-10-29T04:35:04;19.00;;;5.57;;
44512;SDS011;30219;50.588;9.504;2022-10-29T04:37:30;27.65;;;6.28;;
44512;SDS011;30219;50.588;9.504;2022-10-29T04:39:56;26.08;;;5.57;;
44512;SDS011;30219;50.588;9.504;2022-10-29T04:42:21;12.52;;;5.22;;
44512;SDS011;30219;50.588;9.504;2022-10-29T04:44:47;21.50;;;5.60;;
44512;SDS011;30219;50.588;9.504;2022-10-29T04:47:12;21.02;;;5.47;;
44512;SDS011;30219;50.588;9.504;2022-10-29T04:49:38;14.65;;;4.90;;
44512;SDS011;30219;50.588;9.504;2022-10-29T04:52:03;20.55;;;5.72;;
44512;SDS011;30219;50.588;9.504;2022-10-29T04:54:29;16.80;;;5.43;;
44512;SDS011;30219;50.588;9.504;2022-10-29T04:56:55;15.43;;;6.13;;
44512;SDS011;30219;50.588;9.504;2022-10-29T04:59:20;15.60;;;5.13;;
44512;SDS011;30219;50.588;9.504;2022-10-29T05:01:46;15.75;;;5.10;;
44512;SDS011;30219;50.588;9.504;2022-10-29T05:04:12;15.18;;;5.43;;
44512;SDS011;30219;50.588;9.504;2022-10-29T05:06:37;21.52;;;5.30;;
44512;SDS011;30219;50.588;9.504;2022-10-29T05:09:03;16.02;;;5.10;;
44512;SDS011;30219;50.588;9.504;2022-10-29T05:11:28;18.83;;;5.03;;
44512;SDS011;30219;50.588;9.504;2022-10-29T05:13:54;16.48;;;5.35;;
44512;SDS011;30219;50.588;9.504;2022-10-29T05:16:20;17.38;;;5.68;;
44512;SDS011;30219;50.588;9.504;2022-10-29T05:18:46;17.52;;;5.65;;
44512;SDS011;30219;50.588;9.504;2022-10-29T05:21:12;17.85;;;5.25;;
44512;SDS011;30219;50.588;9.504;2022-10-29T05:23:37;20.92;;;5.78;;
44512;SDS011;30219;50.588;9.504;2022-10-29T05:26:03;18.95;;;5.10;;
44512;SDS011;30219;50.588;9.504;2022-10-29T05:28:28;15.07;;;4.82;;
44512;SDS011;30219;50.588;9.504;2022-10-29T05:30:54;20.85;;;5.50;;
44512;SDS011;30219;50.588;9.504;2022-10-29T05:33:20;20.05;;;5.53;;
44512;SDS011;30219;50.588;9.504;2022-10-29T05:35:48;19.17;;;5.65;;
44512;SDS011;30219;50.588;9.504;2022-10-29T05:38:15;22.55;;;5.78;;
44512;SDS011;30219;50.588;9.504;2022-10-29T05:40:41;18.33;;;6.38;;
44512;SDS011;30219;50.588;9.504;2022-10-29T05:43:09;25.52;;;5.57;;
44512;SDS011;30219;50.588;9.504;2022-10-29T05:45:35;21.80;;;6.00;;
44512;SDS011;30219;50.588;9.504;2022-10-29T05:48:01;21.42;;;7.53;;
44512;SDS011;30219;50.588;9.504;2022-10-29T05:50:28;15.98;;;5.70;;
44512;SDS011;30219;50.588;9.504;2022-10-29T05:53:01;28.92;;;7.00;;
44512;SDS011;30219;50.588;9.504;2022-10-29T05:55:28;18.85;;;6.07;;
44512;SDS011;30219;50.588;9.504;2022-10-29T05:57:56;29.65;;;7.10;;
44512;SDS011;30219;50.588;9.504;2022-10-29T06:00:22;21.60;;;7.18;;
44512;SDS011;30219;50.588;9.504;2022-10-29T06:02:48;30.58;;;7.15;;
44512;SDS011;30219;50.588;9.504;2022-10-29T06:05:13;17.65;;;6.45;;
44512;SDS011;30219;50.588;9.504;2022-10-29T06:07:39;16.38;;;5.32;;
44512;SDS011;30219;50.588;9.504;2022-10-29T06:10:05;22.27;;;6.45;;
44512;SDS011;30219;50.588;9.504;2022-10-29T06:12:31;16.90;;;5.55;;
44512;SDS011;30219;50.588;9.504;2022-10-29T06:14:58;16.73;;;5.75;;
44512;SDS011;30219;50.588;9.504;2022-10-29T06:17:23;17.65;;;6.20;;
44512;SDS011;30219;50.588;9.504;2022-10-29T06:19:49;29.58;;;6.93;;
44512;SDS011;30219;50.588;9.504;2022-10-29T06:22:15;20.63;;;6.95;;
44512;SDS011;30219;50.588;9.504;2022-10-29T06:24:40;18.40;;;6.10;;
44512;SDS011;30219;50.588;9.504;2022-10-29T06:27:06;18.00;;;6.57;;
44512;SDS011;30219;50.588;9.504;2022-10-29T06:29:31;14.02;;;6.10;;
44512;SDS011;30219;50.588;9.504;2022-10-29T06:31:57;14.45;;;6.45;;
44512;SDS011;30219;50.588;9.504;2022-10-29T06:34:22;21.45;;;7.25;;
44512;SDS011;30219;50.588;9.504;2022-10-29T06:36:48;35.47;;;7.10;;
44512;SDS011;30219;50.588;9.504;2022-10-29T06:39:13;28.02;;;7.03;;
44512;SDS011;30219;50.588;9.504;2022-10-29T06:41:39;29.95;;;7.75;;
44512;SDS011;30219;50.588;9.504;2022-10-29T06:44:05;22.23;;;8.10;;
44512;SDS011;30219;50.588;9.504;2022-10-29T06:46:30;23.58;;;7.55;;
44512;SDS011;30219;50.588;9.504;2022-10-29T06:48:58;32.67;;;7.85;;
44512;SDS011;30219;50.588;9.504;2022-10-29T06:51:23;26.33;;;8.20;;
44512;SDS011;30219;50.588;9.504;2022-10-29T06:53:49;24.95;;;7.07;;
44512;SDS011;30219;50.588;9.504;2022-10-29T06:56:14;29.58;;;8.20;;
44512;SDS011;30219;50.588;9.504;2022-10-29T06:58:40;33.58;;;8.68;;
44512;SDS011;30219;50.588;9.504;2022-10-29T07:01:05;24.77;;;10.07;;
44512;SDS011;30219;50.588;9.504;2022-10-29T07:03:31;34.95;;;8.98;;
44512;SDS011;30219;50.588;9.504;2022-10-29T07:05:57;30.73;;;9.70;;
44512;SDS011;30219;50.588;9.504;2022-10-29T07:08:23;29.05;;;9.48;;
44512;SDS011;30219;50.588;9.504;2022-10-29T07:10:50;29.60;;;7.88;;
44512;SDS011;30219;50.588;9.504;2022-10-29T07:13:16;18.90;;;8.32;;
44512;SDS011;30219;50.588;9.504;2022-10-29T07:15:41;31.85;;;8.88;;
44512;SDS011;30219;50.588;9.504;2022-10-29T07:18:07;24.75;;;7.13;;
44512;SDS011;30219;50.588;9.504;2022-10-29T07:20:36;28.33;;;8.60;;
44512;SDS011;30219;50.588;9.504;2022-10-29T07:23:03;24.10;;;7.95;;
44512;SDS011;30219;50.588;9.504;2022-10-29T07:25:29;35.33;;;8.93;;
44512;SDS011;30219;50.588;9.504;2022-10-29T07:28:01;33.65;;;10.25;;
44512;SDS011;30219;50.588;9.504;2022-10-29T07:30:31;25.38;;;8.13;;
44512;SDS011;30219;50.588;9.504;2022-10-29T07:32:57;20.65;;;8.40;;
44512;SDS011;30219;50.588;9.504;2022-10-29T07:35:22;37.47;;;9.00;;
44512;SDS011;30219;50.588;9.504;2022-10-29T07:37:48;30.98;;;9.02;;
44512;SDS011;30219;50.588;9.504;2022-10-29T07:40:14;22.08;;;7.82;;
44512;SDS011;30219;50.588;9.504;2022-10-29T07:42:39;25.67;;;7.78;;
44512;SDS011;30219;50.588;9.504;2022-10-29T07:45:05;28.73;;;8.50;;
44512;SDS011;30219;50.588;9.504;2022-10-29T07:47:31;22.73;;;8.10;;
44512;SDS011;30219;50.588;9.504;2022-10-29T07:49:57;19.10;;;7.65;;
44512;SDS011;30219;50.588;9.504;2022-10-29T07:52:23;24.75;;;8.13;;
44512;SDS011;30219;50.588;9.504;2022-10-29T07:54:48;40.40;;;7.93;;
44512;SDS011;30219;50.588;9.504;2022-10-29T07:57:14;34.88;;;8.27;;
44512;SDS011;30219;50.588;9.504;2022-10-29T07:59:40;17.75;;;7.43;;
44512;SDS011;30219;50.588;9.504;2022-10-29T08:02:08;30.63;;;7.43;;
44512;SDS011;30219;50.588;9.504;2022-10-29T08:04:36;26.10;;;7.20;;
44512;SDS011;30219;50.588;9.504;2022-10-29T08:07:01;21.80;;;7.25;;
44512;SDS011;30219;50.588;9.504;2022-10-29T08:09:27;17.80;;;6.45;;
44512;SDS011;30219;50.588;9.504;2022-10-29T08:11:53;23.58;;;6.72;;
44512;SDS011;30219;50.588;9.504;2022-10-29T08:14:18;28.98;;;8.05;;
44512;SDS011;30219;50.588;9.504;2022-10-29T08:16:44;23.20;;;7.65;;
44512;SDS011;30219;50.588;9.504;2022-10-29T08:19:10;27.05;;;7.65;;
44512;SDS011;30219;50.588;9.504;2022-10-29T08:21:36;25.40;;;8.25;;
44512;SDS011;30219;50.588;9.504;2022-10-29T08:24:02;20.52;;;7.30;;
44512;SDS011;30219;50.588;9.504;2022-10-29T08:26:27;17.25;;;7.53;;
44512;SDS011;30219;50.588;9.504;2022-10-29T08:28:53;34.05;;;8.90;;
44512;SDS011;30219;50.588;9.504;2022-10-29T08:31:18;26.90;;;7.30;;
44512;SDS011;30219;50.588;9.504;2022-10-29T08:33:46;20.05;;;7.63;;
44512;SDS011;30219;50.588;9.504;2022-10-29T08:36:12;26.08;;;7.00;;
44512;SDS011;30219;50.588;9.504;2022-10-29T08:38:38;26.30;;;7.72;;
44512;SDS011;30219;50.588;9.504;2022-10-29T08:46:53;27.85;;;7.65;;
44512;SDS011;30219;50.588;9.504;2022-10-29T08:49:25;21.05;;;8.88;;
44512;SDS011;30219;50.588;9.504;2022-10-29T08:52:02;25.25;;;8.18;;
44512;SDS011;30219;50.588;9.504;2022-10-29T08:54:34;27.73;;;7.63;;
44512;SDS011;30219;50.588;9.504;2022-10-29T08:57:11;26.08;;;8.15;;
44512;SDS011;30219;50.588;9.504;2022-10-29T08:59:41;26.58;;;8.40;;
44512;SDS011;30219;50.588;9.504;2022-10-29T09:02:26;26.67;;;8.00;;
44512;SDS011;30219;50.588;9.504;2022-10-29T09:04:54;29.98;;;7.55;;
44512;SDS011;30219;50.588;9.504;2022-10-29T09:10:29;35.60;;;8.70;;
44512;SDS011;30219;50.588;9.504;2022-10-29T09:13:22;28.05;;;8.68;;
44512;SDS011;30219;50.588;9.504;2022-10-29T09:18:48;25.42;;;8.43;;
44512;SDS011;30219;50.588;9.504;2022-10-29T09:24:14;26.77;;;10.52;;
44512;SDS011;30219;50.588;9.504;2022-10-29T09:26:52;25.60;;;8.35;;
44512;SDS011;30219;50.588;9.504;2022-10-29T09:35:00;25.77;;;12.10;;
44512;SDS011;30219;50.588;9.504;2022-10-29T09:42:49;20.90;;;6.93;;
44512;SDS011;30219;50.588;9.504;2022-10-29T09:45:16;18.90;;;6.68;;
44512;SDS011;30219;50.588;9.504;2022-10-29T09:47:48;20.27;;;7.07;;
44512;SDS011;30219;50.588;9.504;2022-10-29T09:52:52;19.30;;;6.25;;
44512;SDS011;30219;50.588;9.504;2022-10-29T09:55:25;17.60;;;6.63;;
44512;SDS011;30219;50.588;9.504;2022-10-29T09:58:01;19.00;;;7.53;;
44512;SDS011;30219;50.588;9.504;2022-10-29T10:00:28;17.30;;;6.22;;
44512;SDS011;30219;50.588;9.504;2022-10-29T10:05:33;26.33;;;5.47;;
44512;SDS011;30219;50.588;9.504;2022-10-29T10:10:31;29.35;;;5.38;;
44512;SDS011;30219;50.588;9.504;2022-10-29T10:13:21;26.85;;;6.38;;
44512;SDS011;30219;50.588;9.504;2022-10-29T10:15:57;49.67;;;7.43;;
44512;SDS011;30219;50.588;9.504;2022-10-29T10:18:45;23.42;;;6.53;;
44512;SDS011;30219;50.588;9.504;2022-10-29T10:21:25;35.45;;;7.55;;
44512;SDS011;30219;50.588;9.504;2022-10-29T10:23:54;31.27;;;6.68;;
44512;SDS011;30219;50.588;9.504;2022-10-29T10:26:34;30.08;;;6.50;;
44512;SDS011;30219;50.588;9.504;2022-10-29T10:31:47;53.67;;;7.15;;
44512;SDS011;30219;50.588;9.504;2022-10-29T10:34:23;17.65;;;4.47;;
44512;SDS011;30219;50.588;9.504;2022-10-29T10:36:56;20.70;;;4.93;;
44512;SDS011;30219;50.588;9.504;2022-10-29T10:39:40;42.75;;;7.57;;
44512;SDS011;30219;50.588;9.504;2022-10-29T10:42:21;18.55;;;4.72;;
44512;SDS011;30219;50.588;9.504;2022-10-29T10:44:55;32.85;;;4.68;;
44512;SDS011;30219;50.588;9.504;2022-10-29T10:47:27;20.75;;;4.72;;
44512;SDS011;30219;50.588;9.504;2022-10-29T10:50:11;22.85;;;4.65;;
44512;SDS011;30219;50.588;9.504;2022-10-29T10:52:58;19.15;;;4.47;;
44512;SDS011;30219;50.588;9.504;2022-10-29T10:55:35;11.50;;;3.65;;
44512;SDS011;30219;50.588;9.504;2022-10-29T11:01:05;18.85;;;4.50;;
44512;SDS011;30219;50.588;9.504;2022-10-29T11:03:42;17.00;;;4.18;;
44512;SDS011;30219;50.588;9.504;2022-10-29T11:06:15;16.35;;;3.75;;
44512;SDS011;30219;50.588;9.504;2022-10-29T11:11:48;18.60;;;4.15;;
44512;SDS011;30219;50.588;9.504;2022-10-29T11:14:25;18.75;;;3.88;;
44512;SDS011;30219;50.588;9.504;2022-10-29T11:16:57;18.27;;;3.33;;
44512;SDS011;30219;50.588;9.504;2022-10-29T11:21:59;19.55;;;4.28;;
44512;SDS011;30219;50.588;9.504;2022-10-29T11:24:34;19.42;;;4.65;;
44512;SDS011;30219;50.588;9.504;2022-10-29T11:32:30;19.50;;;4.13;;
44512;SDS011;30219;50.588;9.504;2022-10-29T11:35:08;24.70;;;4.50;;
44512;SDS011;30219;50.588;9.504;2022-10-29T11:42:48;28.52;;;4.68;;
44512;SDS011;30219;50.588;9.504;2022-10-29T11:45:19;15.70;;;3.90;;
44512;SDS011;30219;50.588;9.504;2022-10-29T11:51:06;18.55;;;4.10;;
44512;SDS011;30219;50.588;9.504;2022-10-29T11:53:52;13.77;;;3.30;;
44512;SDS011;30219;50.588;9.504;2022-10-29T11:59:10;14.85;;;4.30;;
44512;SDS011;30219;50.588;9.504;2022-10-29T12:02:15;16.02;;;3.33;;
44512;SDS011;30219;50.588;9.504;2022-10-29T12:04:45;15.30;;;3.47;;
44512;SDS011;30219;50.588;9.504;2022-10-29T12:07:28;16.30;;;3.83;;
44512;SDS011;30219;50.588;9.504;2022-10-29T12:21:53;14.32;;;3.00;;
44512;SDS011;30219;50.588;9.504;2022-10-29T12:27:28;14.18;;;3.83;;
44512;SDS011;30219;50.588;9.504;2022-10-29T12:30:06;19.23;;;3.88;;
44512;SDS011;30219;50.588;9.504;2022-10-29T12:35:14;15.75;;;3.50;;
44512;SDS011;30219;50.588;9.504;2022-10-29T12:38:08;11.98;;;3.75;;
44512;SDS011;30219;50.588;9.504;2022-10-29T12:40:51;21.13;;;4.15;;
44512;SDS011;30219;50.588;9.504;2022-10-29T12:43:39;16.58;;;3.60;;
44512;SDS011;30219;50.588;9.504;2022-10-29T12:51:56;23.48;;;4.45;;
44512;SDS011;30219;50.588;9.504;2022-10-29T12:54:38;18.08;;;3.47;;
44512;SDS011;30219;50.588;9.504;2022-10-29T12:59:37;16.27;;;3.85;;
44512;SDS011;30219;50.588;9.504;2022-10-29T13:07:35;15.25;;;3.72;;
44512;SDS011;30219;50.588;9.504;2022-10-29T13:13:02;11.23;;;3.45;;
44512;SDS011;30219;50.588;9.504;2022-10-29T13:15:44;16.08;;;3.22;;
44512;SDS011;30219;50.588;9.504;2022-10-29T13:18:22;16.75;;;3.50;;
44512;SDS011;30219;50.588;9.504;2022-10-29T13:20:54;10.80;;;3.10;;
44512;SDS011;30219;50.588;9.504;2022-10-29T13:25:46;22.58;;;3.38;;
44512;SDS011;30219;50.588;9.504;2022-10-29T13:30:38;14.68;;;3.10;;
44512;SDS011;30219;50.588;9.504;2022-10-29T13:39:01;13.52;;;3.67;;
44512;SDS011;30219;50.588;9.504;2022-10-29T13:41:40;7.25;;;3.22;;
44512;SDS011;30219;50.588;9.504;2022-10-29T13:49:29;15.32;;;4.43;;
44512;SDS011;30219;50.588;9.504;2022-10-29T13:52:10;20.13;;;4.90;;
44512;SDS011;30219;50.588;9.504;2022-10-29T13:54:41;16.80;;;4.20;;
44512;SDS011;30219;50.588;9.504;2022-10-29T13:57:23;17.77;;;4.30;;
44512;SDS011;30219;50.588;9.504;2022-10-29T14:07:45;20.80;;;4.72;;
44512;SDS011;30219;50.588;9.504;2022-10-29T14:10:23;16.65;;;4.40;;
44512;SDS011;30219;50.588;9.504;2022-10-29T14:12:55;18.02;;;3.70;;
44512;SDS011;30219;50.588;9.504;2022-10-29T14:15:27;17.77;;;5.03;;
44512;SDS011;30219;50.588;9.504;2022-10-29T14:17:53;19.90;;;4.95;;
44512;SDS011;30219;50.588;9.504;2022-10-29T14:22:50;16.33;;;3.72;;
44512;SDS011;30219;50.588;9.504;2022-10-29T14:25:34;13.23;;;4.55;;
44512;SDS011;30219;50.588;9.504;2022-10-29T14:28:13;18.77;;;4.95;;
44512;SDS011;30219;50.588;9.504;2022-10-29T14:30:47;15.23;;;4.18;;
44512;SDS011;30219;50.588;9.504;2022-10-29T14:33:29;14.52;;;4.65;;
44512;SDS011;30219;50.588;9.504;2022-10-29T14:39:02;11.18;;;3.88;;
44512;SDS011;30219;50.588;9.504;2022-10-29T14:41:32;14.85;;;4.13;;
44512;SDS011;30219;50.588;9.504;2022-10-29T14:44:06;21.17;;;4.72;;
44512;SDS011;30219;50.588;9.504;2022-10-29T14:46:38;15.25;;;4.60;;
44512;SDS011;30219;50.588;9.504;2022-10-29T14:51:35;21.38;;;4.13;;
44512;SDS011;30219;50.588;9.504;2022-10-29T14:54:14;19.42;;;4.07;;
44512;SDS011;30219;50.588;9.504;2022-10-29T14:56:46;19.38;;;3.75;;
44512;SDS011;30219;50.588;9.504;2022-10-29T14:59:23;19.10;;;4.28;;
44512;SDS011;30219;50.588;9.504;2022-10-29T15:01:55;23.05;;;4.45;;
44512;SDS011;30219;50.588;9.504;2022-10-29T15:04:26;20.98;;;4.25;;
44512;SDS011;30219;50.588;9.504;2022-10-29T15:06:54;21.95;;;4.22;;
44512;SDS011;30219;50.588;9.504;2022-10-29T15:09:41;21.02;;;5.20;;
44512;SDS011;30219;50.588;9.504;2022-10-29T15:12:19;27.35;;;4.65;;
44512;SDS011;30219;50.588;9.504;2022-10-29T15:14:53;15.32;;;4.45;;
44512;SDS011;30219;50.588;9.504;2022-10-29T15:17:25;20.75;;;4.95;;
44512;SDS011;30219;50.588;9.504;2022-10-29T15:19:53;18.50;;;4.75;;
44512;SDS011;30219;50.588;9.504;2022-10-29T15:24:53;18.45;;;5.13;;
44512;SDS011;30219;50.588;9.504;2022-10-29T15:27:22;18.23;;;5.47;;
44512;SDS011;30219;50.588;9.504;2022-10-29T15:29:48;20.55;;;5.35;;
44512;SDS011;30219;50.588;9.504;2022-10-29T15:32:16;23.55;;;4.75;;
44512;SDS011;30219;50.588;9.504;2022-10-29T15:34:46;19.38;;;4.80;;
44512;SDS011;30219;50.588;9.504;2022-10-29T15:42:29;15.82;;;5.32;;
44512;SDS011;30219;50.588;9.504;2022-10-29T15:47:36;24.77;;;6.63;;
44512;SDS011;30219;50.588;9.504;2022-10-29T15:50:03;19.83;;;5.50;;
44512;SDS011;30219;50.588;9.504;2022-10-29T15:52:31;22.80;;;5.28;;
44512;SDS011;30219;50.588;9.504;2022-10-29T15:55:01;24.45;;;5.53;;
44512;SDS011;30219;50.588;9.504;2022-10-29T15:57:32;31.08;;;5.22;;
44512;SDS011;30219;50.588;9.504;2022-10-29T16:00:02;40.05;;;6.55;;
44512;SDS011;30219;50.588;9.504;2022-10-29T16:02:30;26.97;;;5.33;;
44512;SDS011;30219;50.588;9.504;2022-10-29T16:04:55;16.17;;;4.65;;
44512;SDS011;30219;50.588;9.504;2022-10-29T16:07:21;15.55;;;4.35;;
44512;SDS011;30219;50.588;9.504;2022-10-29T16:09:52;23.50;;;5.88;;
44512;SDS011;30219;50.588;9.504;2022-10-29T16:12:21;13.77;;;4.93;;
44512;SDS011;30219;50.588;9.504;2022-10-29T16:14:46;19.15;;;4.68;;
44512;SDS011;30219;50.588;9.504;2022-10-29T16:17:15;15.15;;;4.68;;
44512;SDS011;30219;50.588;9.504;2022-10-29T16:19:42;14.82;;;4.78;;
44512;SDS011;30219;50.588;9.504;2022-10-29T16:22:16;13.15;;;4.90;;
44512;SDS011;30219;50.588;9.504;2022-10-29T16:24:48;19.10;;;5.22;;
44512;SDS011;30219;50.588;9.504;2022-10-29T16:27:15;28.20;;;4.85;;
44512;SDS011;30219;50.588;9.504;2022-10-29T16:29:42;17.00;;;4.72;;
44512;SDS011;30219;50.588;9.504;2022-10-29T16:32:18;27.10;;;5.68;;
44512;SDS011;30219;50.588;9.504;2022-10-29T16:34:46;14.95;;;4.82;;
44512;SDS011;30219;50.588;9.504;2022-10-29T16:37:13;25.13;;;5.00;;
44512;SDS011;30219;50.588;9.504;2022-10-29T16:39:41;16.90;;;4.93;;
44512;SDS011;30219;50.588;9.504;2022-10-29T16:42:12;11.48;;;4.25;;
44512;SDS011;30219;50.588;9.504;2022-10-29T16:44:55;21.60;;;5.22;;
44512;SDS011;30219;50.588;9.504;2022-10-29T16:47:21;11.60;;;4.22;;
44512;SDS011;30219;50.588;9.504;2022-10-29T16:49:47;15.82;;;4.90;;
44512;SDS011;30219;50.588;9.504;2022-10-29T16:52:12;18.40;;;4.53;;
44512;SDS011;30219;50.588;9.504;2022-10-29T16:54:38;11.85;;;3.90;;
44512;SDS011;30219;50.588;9.504;2022-10-29T16:57:04;17.15;;;4.55;;
44512;SDS011;30219;50.588;9.504;2022-10-29T16:59:29;17.83;;;6.10;;
44512;SDS011;30219;50.588;9.504;2022-10-29T17:01:55;15.65;;;4.55;;
44512;SDS011;30219;50.588;9.504;2022-10-29T17:04:20;18.00;;;4.72;;
44512;SDS011;30219;50.588;9.504;2022-10-29T17:06:46;14.02;;;4.90;;
44512;SDS011;30219;50.588;9.504;2022-10-29T17:09:12;24.25;;;5.13;;
44512;SDS011;30219;50.588;9.504;2022-10-29T17:11:37;16.65;;;5.88;;
44512;SDS011;30219;50.588;9.504;2022-10-29T17:14:03;14.05;;;4.38;;
44512;SDS011;30219;50.588;9.504;2022-10-29T17:16:29;15.48;;;4.80;;
44512;SDS011;30219;50.588;9.504;2022-10-29T17:18:54;20.15;;;5.72;;
44512;SDS011;30219;50.588;9.504;2022-10-29T17:21:22;15.35;;;5.05;;
44512;SDS011;30219;50.588;9.504;2022-10-29T17:23:47;21.52;;;5.85;;
44512;SDS011;30219;50.588;9.504;2022-10-29T17:26:13;22.05;;;6.03;;
44512;SDS011;30219;50.588;9.504;2022-10-29T17:28:38;13.98;;;5.40;;
44512;SDS011;30219;50.588;9.504;2022-10-29T17:31:05;12.75;;;4.55;;